createdAt,value
2018-10-05T00:01:01.042Z,67.10
2018-10-05T00:03:28.482Z,67.00
2018-10-05T00:05:56.004Z,66.50
2018-10-05T00:08:23.516Z,66.70
2018-10-05T00:10:51.024Z,67.00
2018-10-05T00:13:18.488Z,67.00
2018-10-05T00:15:46.111Z,66.80
2018-10-05T00:18:13.581Z,67.20
2018-10-05T00:20:41.008Z,67.00
2018-10-05T00:23:08.347Z,67.30
2018-10-05T00:25:35.906Z,67.50
2018-10-05T00:28:03.400Z,67.70
2018-10-05T00:30:30.855Z,68.20
2018-10-05T00:32:58.242Z,68.00
2018-10-05T00:35:25.657Z,67.80
2018-10-05T00:37:53.271Z,68.40
2018-10-05T00:40:20.709Z,67.30
2018-10-05T00:42:48.157Z,67.40
2018-10-05T00:45:15.592Z,67.30
2018-10-05T00:47:43.018Z,66.90
2018-10-05T00:50:10.411Z,67.00
2018-10-05T00:52:37.789Z,69.10
2018-10-05T00:55:05.580Z,68.40
2018-10-05T00:57:33.071Z,68.90
2018-10-05T01:00:00.568Z,68.70
2018-10-05T01:02:28.005Z,68.10
2018-10-05T01:04:55.420Z,68.00
2018-10-05T01:07:23.241Z,67.60
2018-10-05T01:09:50.604Z,67.50
2018-10-05T01:12:18.162Z,67.90
2018-10-05T01:14:45.515Z,68.20
2018-10-05T01:17:12.977Z,67.60
2018-10-05T01:19:40.400Z,68.00
2018-10-05T01:22:07.878Z,68.00
2018-10-05T01:24:35.269Z,67.70
2018-10-05T01:27:02.769Z,67.60
2018-10-05T01:29:30.208Z,67.90
2018-10-05T01:31:57.661Z,67.60
2018-10-05T01:34:25.089Z,67.40
2018-10-05T01:36:52.519Z,68.20
2018-10-05T01:39:19.916Z,67.80
2018-10-05T01:41:47.364Z,67.90
2018-10-05T01:44:14.797Z,68.00
2018-10-05T01:46:42.295Z,67.60
2018-10-05T01:49:09.817Z,67.00
2018-10-05T01:51:37.780Z,66.10
2018-10-05T01:54:06.119Z,66.60
2018-10-05T01:56:34.200Z,67.40
2018-10-05T01:59:01.749Z,67.60
2018-10-05T02:01:29.835Z,68.10
2018-10-05T02:03:57.378Z,67.40
2018-10-05T02:06:24.829Z,67.50
2018-10-05T02:08:52.254Z,67.50
2018-10-05T02:11:19.743Z,67.30
2018-10-05T02:13:47.362Z,67.20
2018-10-05T02:16:14.877Z,67.10
2018-10-05T02:18:42.392Z,66.80
2018-10-05T02:21:09.779Z,66.70
2018-10-05T02:23:37.608Z,66.50
2018-10-05T02:26:05.059Z,66.60
2018-10-05T02:28:32.521Z,67.30
2018-10-05T02:30:59.968Z,67.80
2018-10-05T02:33:27.371Z,68.50
2018-10-05T02:35:54.837Z,68.60
2018-10-05T02:38:22.215Z,68.60
2018-10-05T02:40:49.681Z,68.80
2018-10-05T02:43:17.120Z,68.50
2018-10-05T02:45:44.573Z,68.90
2018-10-05T02:48:12.037Z,68.60
2018-10-05T02:50:39.441Z,68.80
2018-10-05T02:53:07.006Z,68.70
2018-10-05T02:55:34.410Z,68.30
2018-10-05T02:58:01.891Z,68.70
2018-10-05T03:00:40.771Z,68.80
2018-10-05T03:03:08.257Z,68.70
2018-10-05T03:05:35.621Z,68.90
2018-10-05T03:08:03.114Z,68.80
2018-10-05T03:10:30.539Z,69.00
2018-10-05T03:12:57.981Z,68.80
2018-10-05T03:15:25.548Z,68.70
2018-10-05T03:17:52.968Z,68.40
2018-10-05T03:20:20.376Z,69.00
2018-10-05T03:22:47.795Z,68.80
2018-10-05T03:25:15.301Z,68.70
2018-10-05T03:27:42.769Z,69.10
2018-10-05T03:30:10.171Z,69.00
2018-10-05T03:32:37.659Z,69.20
2018-10-05T03:35:05.106Z,69.00
2018-10-05T03:37:32.626Z,68.90
2018-10-05T03:40:00.179Z,69.00
2018-10-05T03:42:27.579Z,68.90
2018-10-05T03:44:54.958Z,69.00
2018-10-05T03:47:22.356Z,68.90
2018-10-05T03:49:49.775Z,69.60
2018-10-05T03:52:17.160Z,69.80
2018-10-05T03:54:44.629Z,69.20
2018-10-05T03:57:12.046Z,69.10
2018-10-05T03:59:39.516Z,69.40
2018-10-05T04:02:07.030Z,69.20
2018-10-05T04:04:34.558Z,69.20
2018-10-05T04:07:01.954Z,69.10
2018-10-05T04:09:29.356Z,69.50
2018-10-05T04:11:56.776Z,69.60
2018-10-05T04:14:24.196Z,69.60
2018-10-05T04:16:51.636Z,69.60
2018-10-05T04:19:19.039Z,69.60
2018-10-05T04:21:46.599Z,69.50
2018-10-05T04:24:14.097Z,69.50
2018-10-05T04:26:41.593Z,69.40
2018-10-05T04:29:08.995Z,69.60
2018-10-05T04:31:36.422Z,70.40
2018-10-05T04:34:03.828Z,69.90
2018-10-05T04:36:31.208Z,69.90
2018-10-05T04:38:58.638Z,70.00
2018-10-05T04:41:26.162Z,69.80
2018-10-05T04:43:53.592Z,70.20
2018-10-05T04:46:21.122Z,70.50
2018-10-05T04:48:48.585Z,70.00
2018-10-05T04:51:15.994Z,70.10
2018-10-05T04:53:43.448Z,70.60
2018-10-05T04:56:10.936Z,70.70
2018-10-05T04:58:38.345Z,70.90
2018-10-05T05:01:05.887Z,70.80
2018-10-05T05:03:33.335Z,71.10
2018-10-05T05:06:00.709Z,71.90
2018-10-05T05:08:28.060Z,71.70
2018-10-05T05:10:55.418Z,71.70
2018-10-05T05:13:22.820Z,72.10
2018-10-05T05:15:50.368Z,72.90
2018-10-05T05:18:17.802Z,72.70
2018-10-05T05:20:45.232Z,72.30
2018-10-05T05:23:12.606Z,71.90
2018-10-05T05:25:40.184Z,72.30
2018-10-05T05:28:07.659Z,71.70
2018-10-05T05:30:35.089Z,71.70
2018-10-05T05:33:02.650Z,71.70
2018-10-05T05:35:30.061Z,70.90
2018-10-05T05:37:57.468Z,70.60
2018-10-05T05:40:25.010Z,70.70
2018-10-05T05:42:52.517Z,71.00
2018-10-05T05:45:19.964Z,71.20
2018-10-05T05:47:47.460Z,71.40
2018-10-05T05:50:14.888Z,71.00
2018-10-05T05:52:42.249Z,71.10
2018-10-05T05:55:09.699Z,72.00
2018-10-05T05:57:37.128Z,71.10
2018-10-05T06:00:04.595Z,70.70
2018-10-05T06:02:32.068Z,69.80
2018-10-05T06:04:59.464Z,70.00
2018-10-05T06:07:26.963Z,70.50
2018-10-05T06:09:54.698Z,70.80
2018-10-05T06:12:22.027Z,70.60
2018-10-05T06:14:49.436Z,71.20
2018-10-05T06:17:16.815Z,72.10
2018-10-05T06:19:44.220Z,72.50
2018-10-05T06:22:11.835Z,72.10
2018-10-05T06:24:39.124Z,72.40
2018-10-05T06:27:06.577Z,73.00
2018-10-05T06:29:34.136Z,73.30
2018-10-05T06:32:01.528Z,73.90
2018-10-05T06:34:29.067Z,75.30
2018-10-05T06:36:56.486Z,74.30
2018-10-05T06:41:58.178Z,73.70
2018-10-05T06:44:25.499Z,73.90
2018-10-05T06:46:52.980Z,74.10
2018-10-05T06:49:20.625Z,73.70
2018-10-05T06:51:48.098Z,74.50
2018-10-05T06:54:15.516Z,74.80
2018-10-05T06:56:42.987Z,75.80
2018-10-05T06:59:10.641Z,76.40
2018-10-05T07:01:38.129Z,76.80
2018-10-05T07:04:05.518Z,77.40
2018-10-05T07:06:32.948Z,78.10
2018-10-05T07:09:00.524Z,78.70
2018-10-05T07:11:27.997Z,78.60
2018-10-05T07:13:55.365Z,79.00
2018-10-05T07:16:22.844Z,79.70
2018-10-05T07:18:50.223Z,79.80
2018-10-05T07:21:17.720Z,79.70
2018-10-05T07:23:45.146Z,79.30
2018-10-05T07:26:12.608Z,79.30
2018-10-05T07:28:40.098Z,79.30
2018-10-05T07:31:07.396Z,79.90
2018-10-05T07:33:34.968Z,79.40
2018-10-05T07:36:02.428Z,78.30
2018-10-05T07:38:29.828Z,77.90
2018-10-05T07:40:57.277Z,78.00
2018-10-05T07:43:24.718Z,78.00
2018-10-05T07:45:52.125Z,78.40
2018-10-05T07:48:19.610Z,77.10
2018-10-05T07:50:47.054Z,80.60
2018-10-05T07:53:14.509Z,80.20
2018-10-05T07:55:42.094Z,78.50
2018-10-05T07:58:09.537Z,78.20
2018-10-05T08:00:36.927Z,77.80
2018-10-05T08:03:04.409Z,78.20
2018-10-05T08:05:31.852Z,77.50
2018-10-05T08:07:59.357Z,76.90
2018-10-05T08:10:26.822Z,79.40
2018-10-05T08:12:54.174Z,77.70
2018-10-05T08:15:21.688Z,77.20
2018-10-05T08:17:49.135Z,76.50
2018-10-05T08:20:16.578Z,77.10
2018-10-05T08:22:43.990Z,77.80
2018-10-05T08:25:11.514Z,78.00
2018-10-05T08:27:38.976Z,77.30
2018-10-05T08:30:06.789Z,78.10
2018-10-05T08:32:34.307Z,76.70
2018-10-05T08:35:01.787Z,74.60
2018-10-05T08:37:29.334Z,72.50
2018-10-05T08:39:56.866Z,72.90
2018-10-05T08:42:24.182Z,71.60
2018-10-05T08:44:51.593Z,73.20
2018-10-05T08:47:18.930Z,73.50
2018-10-05T08:49:46.332Z,72.80
2018-10-05T08:52:13.819Z,72.10
2018-10-05T08:54:41.149Z,71.20
2018-10-05T08:57:08.569Z,70.00
2018-10-05T08:59:36.028Z,69.80
2018-10-05T09:02:03.610Z,69.30
2018-10-05T09:04:31.037Z,69.70
2018-10-05T09:06:58.444Z,67.90
2018-10-05T09:09:25.859Z,67.00
2018-10-05T09:11:53.380Z,67.10
2018-10-05T09:14:20.785Z,67.60
2018-10-05T09:16:48.225Z,68.70
2018-10-05T09:19:15.685Z,69.10
2018-10-05T09:21:43.117Z,69.50
2018-10-05T09:24:10.528Z,68.50
2018-10-05T09:26:37.991Z,67.20
2018-10-05T09:29:05.476Z,65.20
2018-10-05T09:31:32.851Z,64.20
2018-10-05T09:34:00.396Z,64.50
2018-10-05T09:36:27.850Z,64.80
2018-10-05T09:38:55.305Z,65.40
2018-10-05T09:41:22.707Z,67.30
2018-10-05T09:43:50.121Z,65.10
2018-10-05T09:46:17.501Z,65.90
2018-10-05T09:48:44.904Z,65.30
2018-10-05T09:51:12.309Z,65.00
2018-10-05T09:53:39.781Z,64.50
2018-10-05T09:56:07.323Z,63.90
2018-10-05T09:58:34.804Z,64.40
2018-10-05T10:01:07.773Z,63.90
2018-10-05T10:03:36.191Z,63.90
2018-10-05T10:06:04.366Z,63.70
2018-10-05T10:08:31.864Z,63.60
2018-10-05T10:10:59.200Z,63.10
2018-10-05T10:13:26.789Z,63.10
2018-10-05T10:15:54.275Z,63.90
2018-10-05T10:18:21.695Z,63.10
2018-10-05T10:20:49.128Z,62.90
2018-10-05T10:23:16.597Z,61.90
2018-10-05T10:25:44.088Z,61.70
2018-10-05T10:28:11.585Z,61.50
2018-10-05T10:30:38.982Z,62.10
2018-10-05T10:33:06.593Z,62.30
2018-10-05T10:35:33.976Z,62.10
2018-10-05T10:38:01.367Z,61.70
2018-10-05T10:40:28.707Z,61.00
2018-10-05T10:42:56.150Z,60.70
2018-10-05T10:45:23.608Z,61.40
2018-10-05T10:47:51.068Z,61.00
2018-10-05T10:50:18.524Z,59.90
2018-10-05T10:52:45.926Z,60.60
2018-10-05T10:55:13.368Z,60.20
2018-10-05T10:57:40.797Z,60.50
2018-10-05T11:00:08.252Z,60.70
2018-10-05T11:02:35.865Z,60.90
2018-10-05T11:05:04.201Z,60.90
2018-10-05T11:07:31.570Z,60.10
2018-10-05T11:09:59.019Z,58.70
2018-10-05T11:12:26.456Z,59.30
2018-10-05T11:14:53.910Z,61.40
2018-10-05T11:17:21.342Z,60.40
2018-10-05T11:19:48.789Z,59.60
2018-10-05T11:22:16.261Z,59.00
2018-10-05T11:24:43.696Z,57.10
2018-10-05T11:27:11.248Z,56.30
2018-10-05T11:29:38.666Z,56.10
2018-10-05T11:32:06.110Z,57.10
2018-10-05T11:34:33.571Z,57.10
2018-10-05T11:37:00.957Z,55.70
2018-10-05T11:39:28.362Z,55.90
2018-10-05T11:41:55.835Z,55.80
2018-10-05T11:44:23.220Z,54.10
2018-10-05T11:46:50.712Z,53.60
2018-10-05T11:49:18.194Z,53.50
2018-10-05T11:51:45.621Z,53.70
2018-10-05T11:54:13.090Z,52.60
2018-10-05T11:56:40.436Z,51.10
2018-10-05T11:59:07.849Z,51.50
2018-10-05T12:01:35.312Z,52.40
2018-10-05T12:04:02.753Z,53.40
2018-10-05T12:06:30.252Z,51.00
2018-10-05T12:08:57.648Z,50.70
2018-10-05T12:11:25.241Z,49.50
2018-10-05T12:13:52.800Z,49.20
2018-10-05T12:16:20.204Z,50.40
2018-10-05T12:18:47.602Z,49.20
2018-10-05T12:21:14.998Z,50.50
2018-10-05T12:23:42.397Z,50.40
2018-10-05T12:26:10.044Z,52.10
2018-10-05T12:28:37.435Z,51.30
2018-10-05T12:31:04.980Z,48.00
2018-10-05T12:33:32.368Z,47.90
2018-10-05T12:35:59.811Z,50.20
2018-10-05T12:38:27.288Z,47.70
2018-10-05T12:40:54.677Z,46.10
2018-10-05T12:43:22.148Z,45.70
2018-10-05T12:45:49.682Z,44.20
2018-10-05T12:48:17.090Z,44.50
2018-10-05T12:50:44.482Z,44.60
2018-10-05T12:53:11.978Z,43.10
2018-10-05T12:55:39.444Z,44.80
2018-10-05T12:58:06.973Z,43.00
2018-10-05T13:00:34.290Z,44.00
2018-10-05T13:03:01.744Z,42.50
2018-10-05T13:05:29.084Z,42.20
2018-10-05T13:07:56.519Z,41.00
2018-10-05T13:10:23.984Z,41.40
2018-10-05T13:12:51.455Z,43.30
2018-10-05T13:15:18.784Z,43.00
2018-10-05T13:17:46.272Z,44.20
2018-10-05T13:20:13.671Z,45.30
2018-10-05T13:22:41.102Z,44.60
2018-10-05T13:25:08.622Z,44.10
2018-10-05T13:27:36.120Z,43.60
2018-10-05T13:30:03.581Z,44.20
2018-10-05T13:32:31.034Z,43.50
2018-10-05T13:35:05.130Z,44.20
2018-10-05T13:37:32.566Z,44.00
2018-10-05T13:40:00.083Z,43.10
2018-10-05T13:42:27.505Z,40.40
2018-10-05T13:44:54.946Z,39.40
2018-10-05T13:47:22.312Z,40.20
2018-10-05T13:49:49.784Z,41.20
2018-10-05T13:52:17.262Z,41.60
2018-10-05T13:54:44.626Z,41.70
2018-10-05T13:57:12.004Z,41.80
2018-10-05T13:59:39.362Z,41.40
2018-10-05T14:02:06.845Z,40.40
2018-10-05T14:04:34.280Z,39.90
2018-10-05T14:07:01.704Z,38.80
2018-10-05T14:09:29.093Z,38.50
2018-10-05T14:11:56.641Z,38.30
2018-10-05T14:14:23.989Z,38.50
2018-10-05T14:16:51.385Z,38.20
2018-10-05T14:19:18.941Z,38.90
2018-10-05T14:21:46.289Z,38.50
2018-10-05T14:24:13.709Z,38.10
2018-10-05T14:26:41.145Z,37.90
2018-10-05T14:29:08.599Z,38.50
2018-10-05T14:31:36.124Z,38.00
2018-10-05T14:34:03.676Z,37.70
2018-10-05T14:36:31.087Z,38.10
2018-10-05T14:38:58.534Z,37.60
2018-10-05T14:41:25.938Z,38.60
2018-10-05T14:43:53.662Z,38.90
2018-10-05T14:46:21.140Z,38.50
2018-10-05T14:48:48.556Z,38.70
2018-10-05T14:51:15.961Z,38.50
2018-10-05T14:53:43.447Z,38.30
2018-10-05T14:56:10.827Z,39.00
2018-10-05T14:58:38.259Z,38.50
2018-10-05T15:01:05.693Z,38.10
2018-10-05T15:03:33.069Z,37.80
2018-10-05T15:06:00.497Z,37.50
2018-10-05T15:08:28.009Z,36.80
2018-10-05T15:10:55.511Z,37.20
2018-10-05T15:13:22.957Z,38.20
2018-10-05T15:15:50.439Z,38.10
2018-10-05T15:18:17.873Z,37.50
2018-10-05T15:20:45.218Z,38.10
2018-10-05T15:23:12.600Z,37.40
2018-10-05T15:25:40.150Z,37.40
2018-10-05T15:28:07.662Z,38.30
2018-10-05T15:30:35.228Z,38.10
2018-10-05T15:33:02.737Z,39.50
2018-10-05T15:35:30.141Z,37.50
2018-10-05T15:37:57.506Z,38.00
2018-10-05T15:40:24.982Z,38.80
2018-10-05T15:42:52.471Z,37.80
2018-10-05T15:45:19.994Z,38.10
2018-10-05T15:47:47.497Z,38.80
2018-10-05T15:50:14.933Z,40.20
2018-10-05T15:52:42.461Z,39.80
2018-10-05T15:55:10.070Z,40.60
2018-10-05T15:57:37.643Z,40.80
2018-10-05T16:00:05.166Z,41.90
2018-10-05T16:02:32.600Z,41.90
2018-10-05T16:05:00.178Z,41.90
2018-10-05T16:07:27.618Z,43.60
2018-10-05T16:09:55.110Z,43.70
2018-10-05T16:12:22.701Z,43.50
2018-10-05T16:14:50.142Z,46.00
2018-10-05T16:17:17.709Z,47.90
2018-10-05T16:19:45.094Z,49.30
2018-10-05T16:22:12.500Z,49.70
2018-10-05T16:24:41.219Z,49.10
2018-10-05T16:27:09.262Z,48.70
2018-10-05T16:29:37.060Z,48.80
2018-10-05T16:32:04.542Z,49.40
2018-10-05T16:34:32.480Z,50.50
2018-10-05T16:36:59.879Z,50.70
2018-10-05T16:39:27.347Z,51.30
2018-10-05T16:41:54.733Z,51.90
2018-10-05T16:44:22.180Z,52.10
2018-10-05T16:46:49.621Z,52.20
2018-10-05T16:49:17.087Z,51.50
2018-10-05T16:51:44.574Z,51.40
2018-10-05T16:54:11.972Z,51.20
2018-10-05T16:56:39.382Z,51.20
2018-10-05T16:59:07.204Z,51.60
2018-10-05T17:01:34.998Z,51.50
2018-10-05T17:04:02.622Z,51.80
2018-10-05T17:06:30.313Z,52.00
2018-10-05T17:09:01.732Z,52.00
2018-10-05T17:11:29.116Z,52.10
2018-10-05T17:13:56.605Z,51.90
2018-10-05T17:16:23.945Z,52.30
2018-10-05T17:18:51.337Z,52.20
2018-10-05T17:21:18.749Z,52.30
2018-10-05T17:23:46.221Z,52.30
2018-10-05T17:26:13.634Z,52.50
2018-10-05T17:28:41.060Z,52.70
2018-10-05T17:31:08.557Z,53.10
2018-10-05T17:33:35.944Z,53.40
2018-10-05T17:36:03.428Z,53.60
2018-10-05T17:38:30.924Z,53.80
2018-10-05T17:40:58.372Z,54.10
2018-10-05T17:43:25.810Z,54.20
2018-10-05T17:45:53.228Z,54.40
2018-10-05T17:48:20.852Z,54.50
2018-10-05T17:50:48.248Z,54.50
2018-10-05T17:53:15.664Z,54.90
2018-10-05T17:55:43.122Z,55.00
2018-10-05T17:58:10.648Z,55.10
2018-10-05T18:00:38.154Z,55.30
2018-10-05T18:03:05.633Z,55.50
2018-10-05T18:05:33.040Z,55.70
2018-10-05T18:08:00.505Z,55.70
2018-10-05T18:10:27.969Z,55.70
2018-10-05T18:12:55.414Z,55.60
2018-10-05T18:15:22.878Z,55.90
2018-10-05T18:17:50.335Z,56.10
2018-10-05T18:20:17.904Z,56.20
2018-10-05T18:22:45.333Z,56.40
2018-10-05T18:25:12.717Z,56.50
2018-10-05T18:27:40.138Z,56.60
2018-10-05T18:30:07.548Z,56.70
2018-10-05T18:32:35.060Z,57.00
2018-10-05T18:35:02.495Z,57.10
2018-10-05T18:37:29.950Z,57.20
2018-10-05T18:39:57.420Z,57.30
2018-10-05T18:42:24.816Z,57.40
2018-10-05T18:44:52.368Z,57.60
2018-10-05T18:47:19.791Z,57.90
2018-10-05T18:49:47.185Z,58.00
2018-10-05T18:52:14.636Z,58.10
2018-10-05T18:54:42.058Z,58.20
2018-10-05T18:57:12.264Z,58.30
2018-10-05T18:59:39.818Z,58.40
2018-10-05T19:02:07.157Z,58.50
2018-10-05T19:04:34.617Z,58.50
2018-10-05T19:07:02.291Z,58.60
2018-10-05T19:09:29.618Z,58.70
2018-10-05T19:11:57.049Z,58.90
2018-10-05T19:14:24.523Z,58.80
2018-10-05T19:16:51.998Z,59.00
2018-10-05T19:19:19.352Z,59.10
2018-10-05T19:21:46.836Z,59.20
2018-10-05T19:24:14.245Z,59.50
2018-10-05T19:26:41.857Z,59.60
2018-10-05T19:29:09.409Z,59.60
2018-10-05T19:31:36.954Z,59.50
2018-10-05T19:34:04.320Z,59.80
2018-10-05T19:36:31.771Z,59.70
2018-10-05T19:38:59.193Z,59.80
2018-10-05T19:41:26.539Z,60.00
2018-10-05T19:43:54.011Z,60.20
2018-10-05T19:46:21.437Z,60.50
2018-10-05T19:48:48.966Z,60.50
2018-10-05T19:51:16.335Z,60.60
2018-10-05T19:53:43.819Z,60.80
2018-10-05T19:56:11.192Z,61.00
2018-10-05T19:58:38.620Z,61.30
2018-10-05T20:01:06.047Z,61.50
2018-10-05T20:03:33.447Z,61.60
2018-10-05T20:06:00.819Z,62.10
2018-10-05T20:08:28.246Z,62.50
2018-10-05T20:10:55.731Z,62.70
2018-10-05T20:13:23.101Z,62.70
2018-10-05T20:15:50.512Z,62.70
2018-10-05T20:18:18.098Z,62.90
2018-10-05T20:20:45.480Z,63.00
2018-10-05T20:23:12.966Z,63.50
2018-10-05T20:25:40.498Z,63.70
2018-10-05T20:28:07.952Z,63.80
2018-10-05T20:30:35.783Z,64.20
2018-10-05T20:33:04.340Z,65.10
2018-10-05T20:35:31.843Z,64.50
2018-10-05T20:37:59.273Z,64.40
2018-10-05T20:40:26.694Z,64.20
2018-10-05T20:42:54.102Z,64.60
2018-10-05T20:45:21.596Z,64.60
2018-10-05T20:47:49.025Z,64.40
2018-10-05T20:59:26.346Z,64.50
2018-10-05T21:01:53.787Z,64.60
2018-10-05T21:04:21.315Z,64.50
2018-10-05T21:06:48.721Z,65.10
2018-10-05T21:09:16.030Z,64.80
2018-10-05T21:11:43.459Z,64.90
2018-10-05T21:14:10.898Z,64.80
2018-10-05T21:16:38.359Z,64.70
2018-10-05T21:19:06.202Z,64.60
2018-10-05T21:21:33.651Z,65.50
2018-10-05T21:24:01.153Z,65.10
2018-10-05T21:26:28.641Z,64.70
2018-10-05T21:28:56.135Z,63.70
2018-10-05T21:31:23.563Z,64.50
2018-10-05T21:33:50.945Z,65.80
2018-10-05T21:36:18.352Z,66.20
2018-10-05T21:38:52.767Z,66.30
2018-10-05T21:41:20.134Z,66.20
2018-10-05T21:43:47.533Z,65.90
2018-10-05T21:46:15.027Z,65.70
2018-10-05T21:48:42.546Z,66.20
2018-10-05T21:51:09.914Z,65.80
2018-10-05T21:53:37.371Z,65.40
2018-10-05T21:56:05.095Z,65.30
2018-10-05T21:58:34.189Z,65.80
2018-10-05T22:01:01.678Z,65.90
2018-10-05T22:03:30.402Z,65.90
2018-10-05T22:05:58.246Z,65.90
2018-10-05T22:08:25.707Z,66.40
2018-10-05T22:10:53.156Z,66.40
2018-10-05T22:13:20.605Z,66.20
2018-10-05T22:15:48.184Z,66.30
2018-10-05T22:18:15.944Z,66.10
2018-10-05T22:20:43.412Z,66.20
2018-10-05T22:23:10.765Z,66.30
2018-10-05T22:25:38.223Z,66.60
2018-10-05T22:28:05.633Z,66.60
2018-10-05T22:30:33.082Z,66.40
2018-10-05T22:33:00.572Z,66.70
2018-10-05T22:35:28.126Z,66.60
2018-10-05T22:37:55.898Z,66.70
2018-10-05T22:40:23.303Z,66.80
2018-10-05T22:42:50.690Z,66.90
2018-10-05T22:45:18.180Z,67.20
2018-10-05T22:47:45.648Z,67.30
2018-10-05T22:50:13.060Z,68.10
2018-10-05T22:52:40.538Z,67.40
2018-10-05T22:55:07.964Z,67.50
2018-10-05T22:57:35.386Z,67.30
2018-10-05T23:00:02.821Z,67.50
2018-10-05T23:02:30.188Z,67.50
2018-10-05T23:04:57.627Z,67.30
2018-10-05T23:07:25.089Z,67.70
2018-10-05T23:09:52.490Z,67.60
2018-10-05T23:12:19.867Z,67.80
2018-10-05T23:14:47.305Z,67.70
2018-10-05T23:17:14.700Z,68.00
2018-10-05T23:19:42.148Z,67.80
2018-10-05T23:22:09.586Z,68.10
2018-10-05T23:24:37.056Z,68.00
2018-10-05T23:27:04.795Z,68.50
2018-10-05T23:29:32.136Z,68.70
2018-10-05T23:31:59.555Z,68.20
2018-10-05T23:34:27.048Z,68.20
2018-10-05T23:36:54.523Z,68.20
2018-10-05T23:39:21.964Z,68.30
2018-10-05T23:41:49.377Z,68.00
2018-10-05T23:44:16.822Z,67.80
2018-10-05T23:46:44.247Z,68.60
2018-10-05T23:49:11.676Z,68.00
2018-10-05T23:51:39.056Z,68.20
2018-10-05T23:54:06.489Z,69.00
2018-10-05T23:56:33.957Z,69.50
2018-10-05T23:59:01.363Z,69.80
